createdAt,value
2023-05-05T00:00:59.573Z,0
2023-05-05T00:02:01.180Z,0
2023-05-05T00:03:01.793Z,0
2023-05-05T00:04:02.865Z,0
2023-05-05T00:05:04.353Z,0
2023-05-05T00:06:05.814Z,0
2023-05-05T00:07:07.223Z,0
2023-05-05T00:08:08.556Z,0
2023-05-05T00:09:09.096Z,0
2023-05-05T00:10:10.596Z,0
2023-05-05T00:11:12.083Z,0
2023-05-05T00:12:43.564Z,0
2023-05-05T00:13:45.084Z,0
2023-05-05T00:14:46.635Z,0
2023-05-05T00:15:47.851Z,0
2023-05-05T00:16:49.480Z,0
2023-05-05T00:17:50.381Z,0
2023-05-05T00:18:51.797Z,0
2023-05-05T00:19:52.822Z,0
2023-05-05T00:20:54.848Z,0
2023-05-05T00:21:56.658Z,0
2023-05-05T00:22:57.579Z,0
2023-05-05T00:23:58.567Z,0
2023-05-05T00:24:59.573Z,0
2023-05-05T00:26:00.531Z,0
2023-05-05T00:27:01.029Z,0
2023-05-05T00:28:01.482Z,0
2023-05-05T00:29:03.609Z,0
2023-05-05T00:30:04.126Z,0
2023-05-05T00:31:05.343Z,0
2023-05-05T00:32:06.614Z,0
2023-05-05T00:33:07.090Z,0
2023-05-05T00:34:08.048Z,0
2023-05-05T00:35:08.581Z,0
2023-05-05T00:36:09.835Z,0
2023-05-05T00:37:11.437Z,0
2023-05-05T00:38:43.113Z,0
2023-05-05T00:39:43.888Z,0
2023-05-05T00:40:45.301Z,0
2023-05-05T00:41:46.348Z,0
2023-05-05T00:42:47.375Z,0
2023-05-05T00:43:48.358Z,0
2023-05-05T00:44:49.829Z,0
2023-05-05T00:45:51.315Z,0
2023-05-05T00:46:52.672Z,0
2023-05-05T00:47:53.234Z,0
2023-05-05T00:48:54.369Z,0
2023-05-05T00:49:55.804Z,0
2023-05-05T00:50:56.807Z,0
2023-05-05T00:51:57.452Z,0
2023-05-05T00:52:57.975Z,0
2023-05-05T00:53:58.425Z,0
2023-05-05T00:54:59.906Z,0
2023-05-05T00:56:01.294Z,0
2023-05-05T00:57:02.495Z,0
2023-05-05T00:58:03.958Z,0
2023-05-05T00:59:05.428Z,0
2023-05-05T01:00:06.870Z,0
2023-05-05T01:01:07.730Z,0
2023-05-05T01:02:08.120Z,0
2023-05-05T01:03:09.415Z,0
2023-05-05T01:04:10.323Z,0
2023-05-05T01:05:11.776Z,0
2023-05-05T01:06:43.278Z,0
2023-05-05T01:07:44.158Z,0
2023-05-05T01:08:45.439Z,0
2023-05-05T01:09:46.816Z,0
2023-05-05T01:10:47.879Z,0
2023-05-05T01:11:49.300Z,0
2023-05-05T01:12:50.632Z,0
2023-05-05T01:13:51.157Z,0
2023-05-05T01:14:52.349Z,0
2023-05-05T01:15:53.694Z,0
2023-05-05T01:16:55.081Z,0
2023-05-05T01:17:56.665Z,0
2023-05-05T01:18:57.318Z,0
2023-05-05T01:19:58.299Z,0
2023-05-05T01:20:59.644Z,0
2023-05-05T01:22:00.194Z,0
2023-05-05T01:23:01.351Z,0
2023-05-05T01:24:03.063Z,0
2023-05-05T01:25:04.582Z,0
2023-05-05T01:26:06.092Z,0
2023-05-05T01:27:06.557Z,0
2023-05-05T01:28:07.813Z,0
2023-05-05T01:29:08.868Z,0
2023-05-05T01:30:10.216Z,0
2023-05-05T01:31:11.162Z,0
2023-05-05T01:32:42.896Z,0
2023-05-05T01:33:43.491Z,0
2023-05-05T01:34:44.079Z,0
2023-05-05T01:35:45.359Z,0
2023-05-05T01:36:46.955Z,0
2023-05-05T01:37:48.063Z,0
2023-05-05T01:38:48.582Z,0
2023-05-05T01:39:49.831Z,0
2023-05-05T01:40:51.080Z,0
2023-05-05T01:41:51.661Z,0
2023-05-05T01:42:52.831Z,0
2023-05-05T01:43:53.889Z,0
2023-05-05T01:44:55.467Z,0
2023-05-05T01:45:56.858Z,0
2023-05-05T01:46:58.064Z,0
2023-05-05T01:47:58.616Z,0
2023-05-05T01:48:59.848Z,0
2023-05-05T01:50:01.105Z,0
2023-05-05T01:51:02.570Z,0
2023-05-05T01:52:03.325Z,0
2023-05-05T01:53:04.614Z,0
2023-05-05T01:54:06.077Z,0
2023-05-05T01:55:07.168Z,0
2023-05-05T01:56:08.087Z,0
2023-05-05T01:57:08.634Z,0
2023-05-05T01:58:09.885Z,0
2023-05-05T01:59:11.110Z,0
2023-05-05T02:00:42.347Z,0
2023-05-05T02:01:43.729Z,0
2023-05-05T02:02:45.200Z,0
2023-05-05T02:03:46.152Z,0
2023-05-05T02:04:47.443Z,0
2023-05-05T02:05:48.849Z,0
2023-05-05T02:06:49.984Z,0
2023-05-05T02:07:51.106Z,0
2023-05-05T02:08:52.628Z,0
2023-05-05T02:09:53.354Z,0
2023-05-05T02:10:54.872Z,0
2023-05-05T02:11:56.389Z,0
2023-05-05T02:12:57.665Z,0
2023-05-05T02:13:59.123Z,0
2023-05-05T02:14:59.555Z,0
2023-05-05T02:16:00.988Z,0
2023-05-05T02:17:02.123Z,0
2023-05-05T02:18:02.652Z,0
2023-05-05T02:19:03.935Z,0
2023-05-05T02:20:05.249Z,0
2023-05-05T02:21:06.707Z,0
2023-05-05T02:22:07.123Z,0
2023-05-05T02:23:08.396Z,0
2023-05-05T02:24:09.837Z,0
2023-05-05T02:25:11.574Z,0
2023-05-05T02:26:43.939Z,0
2023-05-05T02:27:45.102Z,0
2023-05-05T02:28:46.623Z,0
2023-05-05T02:29:47.280Z,0
2023-05-05T02:30:48.389Z,0
2023-05-05T02:31:50.080Z,0
2023-05-05T02:32:51.082Z,0
2023-05-05T02:33:51.700Z,0
2023-05-05T02:34:52.800Z,0
2023-05-05T02:35:53.922Z,0
2023-05-05T02:36:55.357Z,0
2023-05-05T02:37:56.962Z,0
2023-05-05T02:38:58.104Z,0
2023-05-05T02:39:58.689Z,0
2023-05-05T02:41:00.111Z,0
2023-05-05T02:42:01.483Z,0
2023-05-05T02:43:02.608Z,0
2023-05-05T02:44:04.093Z,0
2023-05-05T02:45:05.104Z,0
2023-05-05T02:46:06.725Z,0
2023-05-05T02:47:08.227Z,0
2023-05-05T02:48:09.655Z,0
2023-05-05T02:49:10.561Z,0
2023-05-05T02:50:43.075Z,0
2023-05-05T02:51:44.748Z,0
2023-05-05T02:52:46.157Z,0
2023-05-05T02:53:47.596Z,0
2023-05-05T02:54:48.226Z,0
2023-05-05T02:55:49.581Z,0
2023-05-05T02:56:50.139Z,0
2023-05-05T02:57:51.599Z,0
2023-05-05T02:58:52.224Z,0
2023-05-05T02:59:53.621Z,0
2023-05-05T03:00:54.908Z,0
2023-05-05T03:01:56.464Z,0
2023-05-05T03:02:57.824Z,0
2023-05-05T03:03:59.167Z,0
2023-05-05T03:04:59.741Z,0
2023-05-05T03:06:00.908Z,0
2023-05-05T03:07:02.378Z,0
2023-05-05T03:08:03.617Z,0
2023-05-05T03:09:05.129Z,0
2023-05-05T03:10:06.035Z,0
2023-05-05T03:11:06.887Z,0
2023-05-05T03:12:08.344Z,0
2023-05-05T03:13:11.220Z,0
2023-05-05T03:14:41.931Z,0
2023-05-05T03:15:43.744Z,0
2023-05-05T03:16:44.918Z,0
2023-05-05T03:17:46.080Z,0
2023-05-05T03:18:47.182Z,0
2023-05-05T03:19:47.661Z,0
2023-05-05T03:20:49.116Z,0
2023-05-05T03:21:50.613Z,0
2023-05-05T03:22:51.610Z,0
2023-05-05T03:23:53.163Z,0
2023-05-05T03:24:54.688Z,0
2023-05-05T03:25:55.376Z,0
2023-05-05T03:26:56.880Z,0
2023-05-05T03:27:57.482Z,0
2023-05-05T03:28:59.625Z,0
2023-05-05T03:30:00.180Z,0
2023-05-05T03:31:00.651Z,0
2023-05-05T03:32:02.162Z,0
2023-05-05T03:33:02.594Z,0
2023-05-05T03:34:03.753Z,0
2023-05-05T03:35:04.201Z,0
2023-05-05T03:36:05.383Z,0
2023-05-05T03:37:06.861Z,0
2023-05-05T03:38:08.407Z,0
2023-05-05T03:39:09.720Z,0
2023-05-05T03:40:44.506Z,0
2023-05-05T03:41:42.110Z,0
2023-05-05T03:42:42.621Z,0
2023-05-05T03:43:43.851Z,0
2023-05-05T03:44:45.108Z,0
2023-05-05T03:45:46.612Z,0
2023-05-05T03:46:47.604Z,0
2023-05-05T03:47:48.161Z,0
2023-05-05T03:48:49.390Z,0
2023-05-05T03:49:50.582Z,0
2023-05-05T03:50:51.772Z,0
2023-05-05T03:51:53.105Z,0
2023-05-05T03:52:54.403Z,0
2023-05-05T03:53:55.578Z,0
2023-05-05T03:54:56.681Z,0
2023-05-05T03:55:57.227Z,0
2023-05-05T03:56:58.432Z,0
2023-05-05T03:57:59.850Z,0
2023-05-05T03:59:00.312Z,0
2023-05-05T04:00:01.580Z,0
2023-05-05T04:01:02.183Z,0
2023-05-05T04:02:04.178Z,0
2023-05-05T04:03:05.764Z,0
2023-05-05T04:04:07.139Z,0
2023-05-05T04:05:08.607Z,0
2023-05-05T04:06:09.113Z,0
2023-05-05T04:07:40.703Z,0
2023-05-05T04:08:41.926Z,0
2023-05-05T04:09:43.703Z,0
2023-05-05T04:10:45.100Z,0
2023-05-05T04:11:46.694Z,0
2023-05-05T04:12:47.160Z,0
2023-05-05T04:13:48.453Z,0
2023-05-05T04:14:49.863Z,0
2023-05-05T04:15:51.188Z,0
2023-05-05T04:16:51.637Z,0
2023-05-05T04:17:52.973Z,0
2023-05-05T04:18:53.456Z,0
2023-05-05T04:19:54.674Z,0
2023-05-05T04:20:56.089Z,0
2023-05-05T04:21:57.174Z,0
2023-05-05T04:22:57.659Z,0
2023-05-05T04:23:58.897Z,0
2023-05-05T04:25:00.205Z,0
2023-05-05T04:26:00.634Z,0
2023-05-05T04:27:01.092Z,5.625
2023-05-05T04:28:01.731Z,5.625
2023-05-05T04:29:03.131Z,5.625
2023-05-05T04:30:04.609Z,5.625
2023-05-05T04:31:05.303Z,5.625
2023-05-05T04:32:07.137Z,5.625
2023-05-05T04:33:08.654Z,5.625
2023-05-05T04:34:40.419Z,5.625
2023-05-05T04:35:41.633Z,5.625
2023-05-05T04:36:43.114Z,5.625
2023-05-05T04:37:43.886Z,5.625
2023-05-05T04:38:45.556Z,5.625
2023-05-05T04:39:46.885Z,5.625
2023-05-05T04:40:48.150Z,5.625
2023-05-05T04:41:49.588Z,5.625
2023-05-05T04:42:50.869Z,11.25
2023-05-05T04:43:52.167Z,11.25
2023-05-05T04:44:53.609Z,11.25
2023-05-05T04:45:55.267Z,11.25
2023-05-05T04:46:55.845Z,11.25
2023-05-05T04:47:57.008Z,11.25
2023-05-05T04:48:57.930Z,11.25
2023-05-05T04:49:59.138Z,11.25
2023-05-05T04:50:59.735Z,11.25
2023-05-05T04:52:01.113Z,11.25
2023-05-05T04:53:02.494Z,11.25
2023-05-05T04:54:03.923Z,11.25
2023-05-05T04:55:05.163Z,11.25
2023-05-05T04:56:06.613Z,11.25
2023-05-05T04:57:07.099Z,11.25
2023-05-05T04:58:08.462Z,16.875
2023-05-05T04:59:39.790Z,16.875
2023-05-05T05:00:40.997Z,16.875
2023-05-05T05:01:42.196Z,16.875
2023-05-05T05:02:43.759Z,16.875
2023-05-05T05:03:44.278Z,16.875
2023-05-05T05:04:45.342Z,16.875
2023-05-05T05:05:46.393Z,16.875
2023-05-05T05:06:47.613Z,16.875
2023-05-05T05:07:48.140Z,16.875
2023-05-05T05:08:49.357Z,16.875
2023-05-05T05:09:50.347Z,16.875
2023-05-05T05:10:51.394Z,16.875
2023-05-05T05:11:52.941Z,16.875
2023-05-05T05:12:54.509Z,16.875
2023-05-05T05:13:55.647Z,16.875
2023-05-05T05:14:56.258Z,22.5
2023-05-05T05:15:58.196Z,22.5
2023-05-05T05:16:58.670Z,22.5
2023-05-05T05:17:59.951Z,22.5
2023-05-05T05:19:01.792Z,22.5
2023-05-05T05:20:02.388Z,22.5
2023-05-05T05:21:03.670Z,22.5
2023-05-05T05:22:05.135Z,22.5
2023-05-05T05:23:05.687Z,22.5
2023-05-05T05:24:06.946Z,22.5
2023-05-05T05:25:08.106Z,22.5
2023-05-05T05:26:39.942Z,22.5
2023-05-05T05:27:41.118Z,22.5
2023-05-05T05:28:42.626Z,22.5
2023-05-05T05:29:43.081Z,22.5
2023-05-05T05:30:44.360Z,22.5
2023-05-05T05:31:45.368Z,22.5
2023-05-05T05:32:46.554Z,22.5
2023-05-05T05:33:47.965Z,22.5
2023-05-05T05:34:49.448Z,22.5
2023-05-05T05:35:50.372Z,22.5
2023-05-05T05:36:51.606Z,22.5
2023-05-05T05:37:53.136Z,22.5
2023-05-05T05:38:53.622Z,28.125
2023-05-05T05:39:54.931Z,28.125
2023-05-05T05:40:56.463Z,28.125
2023-05-05T05:41:57.860Z,28.125
2023-05-05T05:42:59.651Z,28.125
2023-05-05T05:44:00.171Z,28.125
2023-05-05T05:45:01.413Z,28.125
2023-05-05T05:46:02.675Z,28.125
2023-05-05T05:47:03.660Z,28.125
2023-05-05T05:48:04.178Z,28.125
2023-05-05T05:49:05.376Z,33.75
2023-05-05T05:50:06.068Z,33.75
2023-05-05T05:51:07.108Z,33.75
2023-05-05T05:52:07.620Z,33.75
2023-05-05T05:53:39.218Z,33.75
2023-05-05T05:54:40.400Z,33.75
2023-05-05T05:55:41.916Z,33.75
2023-05-05T05:56:42.841Z,33.75
2023-05-05T05:57:44.100Z,33.75
2023-05-05T05:58:45.637Z,28.125
2023-05-05T05:59:46.295Z,28.125
2023-05-05T06:00:47.481Z,33.75
2023-05-05T06:01:48.921Z,33.75
2023-05-05T06:02:50.193Z,39.375
2023-05-05T06:03:51.521Z,33.75
2023-05-05T06:04:52.991Z,33.75
2023-05-05T06:05:54.290Z,33.75
2023-05-05T06:06:55.622Z,33.75
2023-05-05T06:07:56.635Z,33.75
2023-05-05T06:08:57.097Z,33.75
2023-05-05T06:09:59.282Z,33.75
2023-05-05T06:10:59.003Z,33.75
2023-05-05T06:12:00.313Z,33.75
2023-05-05T06:13:01.664Z,33.75
2023-05-05T06:14:02.419Z,33.75
2023-05-05T06:15:03.951Z,33.75
2023-05-05T06:16:05.526Z,33.75
2023-05-05T06:17:06.766Z,39.375
2023-05-05T06:18:08.149Z,39.375
2023-05-05T06:19:38.886Z,39.375
2023-05-05T06:20:40.438Z,39.375
2023-05-05T06:21:42.158Z,39.375
2023-05-05T06:22:43.716Z,33.75
2023-05-05T06:23:44.908Z,33.75
2023-05-05T06:24:46.332Z,33.75
2023-05-05T06:25:47.418Z,33.75
2023-05-05T06:26:49.000Z,33.75
2023-05-05T06:27:50.118Z,33.75
2023-05-05T06:28:51.109Z,33.75
2023-05-05T06:29:51.562Z,33.75
2023-05-05T06:30:52.895Z,33.75
2023-05-05T06:31:54.455Z,33.75
2023-05-05T06:32:56.705Z,33.75
2023-05-05T06:33:57.221Z,39.375
2023-05-05T06:34:58.465Z,39.375
2023-05-05T06:35:59.877Z,39.375
2023-05-05T06:37:01.240Z,39.375
2023-05-05T06:38:02.619Z,39.375
2023-05-05T06:39:03.131Z,39.375
2023-05-05T06:40:03.616Z,39.375
2023-05-05T06:41:04.906Z,39.375
2023-05-05T06:42:07.188Z,39.375
2023-05-05T06:43:38.914Z,39.375
2023-05-05T06:44:40.118Z,39.375
2023-05-05T06:45:43.622Z,39.375
2023-05-05T06:46:41.683Z,39.375
2023-05-05T06:47:43.065Z,39.375
2023-05-05T06:48:44.796Z,39.375
2023-05-05T06:49:46.130Z,39.375
2023-05-05T06:50:47.114Z,39.375
2023-05-05T06:51:47.570Z,45
2023-05-05T06:52:48.973Z,39.375
2023-05-05T06:53:50.596Z,39.375
2023-05-05T06:54:52.137Z,39.375
2023-05-05T06:55:53.130Z,39.375
2023-05-05T06:56:54.121Z,45
2023-05-05T06:57:55.425Z,45
2023-05-05T06:58:56.659Z,45
2023-05-05T06:59:57.525Z,45
2023-05-05T07:00:58.903Z,45
2023-05-05T07:01:59.877Z,45
2023-05-05T07:03:01.405Z,45
2023-05-05T07:04:02.826Z,45
2023-05-05T07:05:03.274Z,45
2023-05-05T07:06:04.633Z,50.625
2023-05-05T07:07:06.145Z,50.625
2023-05-05T07:08:06.593Z,50.625
2023-05-05T07:09:38.893Z,50.625
2023-05-05T07:10:40.226Z,50.625
2023-05-05T07:11:40.766Z,50.625
2023-05-05T07:12:41.859Z,50.625
2023-05-05T07:13:43.013Z,50.625
2023-05-05T07:14:44.685Z,50.625
2023-05-05T07:15:46.207Z,56.25
2023-05-05T07:16:46.797Z,56.25
2023-05-05T07:17:48.051Z,50.625
2023-05-05T07:18:48.614Z,50.625
2023-05-05T07:19:49.642Z,50.625
2023-05-05T07:20:50.204Z,50.625
2023-05-05T07:21:51.403Z,50.625
2023-05-05T07:22:52.619Z,50.625
2023-05-05T07:23:53.947Z,50.625
2023-05-05T07:24:55.257Z,50.625
2023-05-05T07:25:56.640Z,50.625
2023-05-05T07:26:57.179Z,45
2023-05-05T07:27:58.353Z,50.625
2023-05-05T07:28:59.741Z,50.625
2023-05-05T07:30:00.722Z,50.625
2023-05-05T07:31:01.302Z,50.625
2023-05-05T07:32:02.489Z,50.625
2023-05-05T07:33:03.660Z,50.625
2023-05-05T07:34:04.655Z,50.625
2023-05-05T07:35:05.644Z,50.625
2023-05-05T07:36:07.136Z,50.625
2023-05-05T07:37:38.063Z,50.625
2023-05-05T07:38:39.398Z,50.625
2023-05-05T07:39:40.686Z,50.625
2023-05-05T07:40:42.304Z,50.625
2023-05-05T07:41:43.661Z,50.625
2023-05-05T07:42:44.179Z,50.625
2023-05-05T07:43:45.365Z,50.625
2023-05-05T07:44:46.883Z,50.625
2023-05-05T07:45:48.186Z,50.625
2023-05-05T07:46:48.695Z,50.625
2023-05-05T07:47:50.076Z,50.625
2023-05-05T07:48:51.425Z,50.625
2023-05-05T07:49:52.651Z,50.625
2023-05-05T07:50:55.247Z,50.625
2023-05-05T07:51:55.712Z,50.625
2023-05-05T07:53:06.246Z,50.625
2023-05-05T07:53:58.454Z,50.625
2023-05-05T07:54:58.934Z,50.625
2023-05-05T07:56:00.096Z,50.625
2023-05-05T07:57:01.426Z,50.625
2023-05-05T07:58:02.911Z,50.625
2023-05-05T07:59:05.143Z,50.625
2023-05-05T08:00:05.665Z,50.625
2023-05-05T08:01:06.767Z,50.625
2023-05-05T08:02:38.732Z,50.625
2023-05-05T08:03:40.240Z,45
2023-05-05T08:04:41.588Z,50.625
2023-05-05T08:05:42.624Z,56.25
2023-05-05T08:06:44.312Z,56.25
2023-05-05T08:07:44.904Z,56.25
2023-05-05T08:08:45.606Z,56.25
2023-05-05T08:09:47.070Z,56.25
2023-05-05T08:10:48.172Z,56.25
2023-05-05T08:11:49.646Z,56.25
2023-05-05T08:12:50.340Z,56.25
2023-05-05T08:13:51.494Z,56.25
2023-05-05T08:14:53.031Z,56.25
2023-05-05T08:15:54.693Z,56.25
2023-05-05T08:16:55.440Z,61.875
2023-05-05T08:17:56.523Z,61.875
2023-05-05T08:18:57.952Z,61.875
2023-05-05T08:19:59.418Z,56.25
2023-05-05T08:21:01.657Z,56.25
2023-05-05T08:22:02.220Z,56.25
2023-05-05T08:23:02.618Z,56.25
2023-05-05T08:24:03.097Z,61.875
2023-05-05T08:25:03.590Z,61.875
2023-05-05T08:26:05.630Z,61.875
2023-05-05T08:27:06.582Z,61.875
2023-05-05T08:28:37.979Z,61.875
2023-05-05T08:29:39.434Z,61.875
2023-05-05T08:30:40.931Z,61.875
2023-05-05T08:31:42.507Z,61.875
2023-05-05T08:32:43.681Z,61.875
2023-05-05T08:33:44.236Z,67.5
2023-05-05T08:34:45.404Z,67.5
2023-05-05T08:35:46.439Z,67.5
2023-05-05T08:36:47.633Z,67.5
2023-05-05T08:37:48.972Z,67.5
2023-05-05T08:38:50.232Z,73.125
2023-05-05T08:39:51.449Z,73.125
2023-05-05T08:40:52.063Z,73.125
2023-05-05T08:41:52.541Z,73.125
2023-05-05T08:42:53.911Z,73.125
2023-05-05T08:43:55.098Z,73.125
2023-05-05T08:44:58.330Z,73.125
2023-05-05T08:45:57.661Z,73.125
2023-05-05T08:46:59.212Z,73.125
2023-05-05T08:47:59.766Z,73.125
2023-05-05T08:49:01.186Z,73.125
2023-05-05T08:50:02.712Z,73.125
2023-05-05T08:51:05.687Z,67.5
2023-05-05T08:52:05.671Z,67.5
2023-05-05T08:53:37.421Z,61.875
2023-05-05T08:54:38.469Z,61.875
2023-05-05T08:55:39.991Z,61.875
2023-05-05T08:56:41.464Z,61.875
2023-05-05T08:57:42.685Z,61.875
2023-05-05T08:58:44.194Z,61.875
2023-05-05T08:59:44.771Z,56.25
2023-05-05T09:00:45.990Z,56.25
2023-05-05T09:01:47.427Z,56.25
2023-05-05T09:02:49.700Z,56.25
2023-05-05T09:03:51.017Z,61.875
2023-05-05T09:04:52.371Z,61.875
2023-05-05T09:05:53.497Z,61.875
2023-05-05T09:06:54.692Z,61.875
2023-05-05T09:07:56.187Z,61.875
2023-05-05T09:08:59.013Z,67.5
2023-05-05T09:09:58.679Z,67.5
2023-05-05T09:11:00.174Z,67.5
2023-05-05T09:12:01.657Z,67.5
2023-05-05T09:13:03.221Z,73.125
2023-05-05T09:14:03.825Z,67.5
2023-05-05T09:15:05.038Z,67.5
2023-05-05T09:16:37.514Z,67.5
2023-05-05T09:17:39.023Z,61.875
2023-05-05T09:18:40.522Z,61.875
2023-05-05T09:19:42.199Z,67.5
2023-05-05T09:20:43.749Z,67.5
2023-05-05T09:21:45.047Z,67.5
2023-05-05T09:22:45.706Z,67.5
2023-05-05T09:23:47.266Z,61.875
2023-05-05T09:24:48.533Z,61.875
2023-05-05T09:25:49.947Z,56.25
2023-05-05T09:26:51.620Z,56.25
2023-05-05T09:27:52.935Z,56.25
2023-05-05T09:28:54.576Z,56.25
2023-05-05T09:29:55.968Z,56.25
2023-05-05T09:30:57.102Z,56.25
2023-05-05T09:31:58.489Z,56.25
2023-05-05T09:32:59.975Z,56.25
2023-05-05T09:34:02.156Z,56.25
2023-05-05T09:35:03.899Z,56.25
2023-05-05T09:36:04.298Z,56.25
2023-05-05T09:37:05.702Z,56.25
2023-05-05T09:38:37.531Z,56.25
2023-05-05T09:39:38.943Z,56.25
2023-05-05T09:40:40.482Z,56.25
2023-05-05T09:41:41.933Z,61.875
2023-05-05T09:42:44.487Z,61.875
2023-05-05T09:43:45.920Z,61.875
2023-05-05T09:44:47.432Z,56.25
2023-05-05T09:45:49.049Z,56.25
2023-05-05T09:46:50.216Z,56.25
2023-05-05T09:47:50.722Z,56.25
2023-05-05T09:48:51.979Z,61.875
2023-05-05T09:49:53.500Z,56.25
2023-05-05T09:50:55.031Z,56.25
2023-05-05T09:51:56.867Z,56.25
2023-05-05T09:52:58.285Z,50.625
2023-05-05T09:53:59.076Z,50.625
2023-05-05T09:54:59.639Z,50.625
2023-05-05T09:56:01.263Z,56.25
2023-05-05T09:57:01.686Z,56.25
2023-05-05T09:58:03.639Z,56.25
2023-05-05T09:59:05.763Z,61.875
2023-05-05T10:00:38.689Z,61.875
2023-05-05T10:01:40.797Z,61.875
2023-05-05T10:02:42.251Z,61.875
2023-05-05T10:03:43.749Z,61.875
2023-05-05T10:04:45.249Z,61.875
2023-05-05T10:05:46.682Z,61.875
2023-05-05T10:06:48.020Z,61.875
2023-05-05T10:07:49.176Z,61.875
2023-05-05T10:08:49.829Z,67.5
2023-05-05T10:09:50.986Z,67.5
2023-05-05T10:10:52.518Z,67.5
2023-05-05T10:11:54.479Z,73.125
2023-05-05T10:12:55.820Z,73.125
2023-05-05T10:13:56.392Z,73.125
2023-05-05T10:14:58.191Z,73.125
2023-05-05T10:15:59.717Z,73.125
2023-05-05T10:17:01.274Z,73.125
2023-05-05T10:18:08.276Z,78.75
2023-05-05T10:19:03.262Z,78.75
2023-05-05T10:20:04.594Z,84.375
2023-05-05T10:21:37.024Z,90
2023-05-05T10:22:38.799Z,90
2023-05-05T10:23:39.677Z,95.625
2023-05-05T10:24:41.222Z,101.25
2023-05-05T10:25:41.797Z,101.25
2023-05-05T10:26:43.019Z,101.25
2023-05-05T10:27:44.637Z,101.25
2023-05-05T10:28:45.681Z,106.875
2023-05-05T10:29:47.231Z,101.25
2023-05-05T10:30:47.811Z,101.25
2023-05-05T10:31:48.943Z,101.25
2023-05-05T10:32:54.349Z,101.25
2023-05-05T10:33:51.465Z,95.625
2023-05-05T10:34:52.493Z,95.625
2023-05-05T10:35:54.218Z,90
2023-05-05T10:36:55.621Z,90
2023-05-05T10:37:56.728Z,84.375
2023-05-05T10:38:58.170Z,84.375
2023-05-05T10:39:58.687Z,84.375
2023-05-05T10:41:00.095Z,84.375
2023-05-05T10:42:01.562Z,90
2023-05-05T10:43:03.735Z,90
2023-05-05T10:44:04.774Z,90
2023-05-05T10:45:36.866Z,95.625
2023-05-05T10:46:38.700Z,95.625
2023-05-05T10:47:40.033Z,95.625
2023-05-05T10:48:41.599Z,95.625
2023-05-05T10:49:42.706Z,101.25
2023-05-05T10:50:44.176Z,101.25
2023-05-05T10:51:44.853Z,101.25
2023-05-05T10:52:45.980Z,101.25
2023-05-05T10:53:47.604Z,101.25
2023-05-05T10:54:48.699Z,101.25
2023-05-05T10:55:49.690Z,95.625
2023-05-05T10:56:51.244Z,95.625
2023-05-05T10:57:52.686Z,90
2023-05-05T10:58:59.672Z,84.375
2023-05-05T10:59:55.846Z,84.375
2023-05-05T11:00:56.408Z,84.375
2023-05-05T11:01:57.501Z,78.75
2023-05-05T11:02:59.172Z,84.375
2023-05-05T11:04:00.223Z,84.375
2023-05-05T11:05:01.822Z,84.375
2023-05-05T11:06:02.384Z,84.375
2023-05-05T11:07:03.481Z,84.375
2023-05-05T11:08:35.376Z,84.375
2023-05-05T11:09:36.578Z,84.375
2023-05-05T11:10:37.937Z,84.375
2023-05-05T11:11:39.663Z,90
2023-05-05T11:12:41.028Z,90
2023-05-05T11:13:42.485Z,95.625
2023-05-05T11:14:44.007Z,90
2023-05-05T11:15:45.428Z,90
2023-05-05T11:16:46.462Z,90
2023-05-05T11:17:48.044Z,90
2023-05-05T11:18:49.502Z,95.625
2023-05-05T11:19:51.067Z,95.625
2023-05-05T11:20:52.229Z,90
2023-05-05T11:21:52.803Z,90
2023-05-05T11:22:53.936Z,90
2023-05-05T11:23:55.416Z,95.625
2023-05-05T11:24:56.730Z,95.625
2023-05-05T11:25:58.187Z,95.625
2023-05-05T11:26:58.728Z,95.625
2023-05-05T11:27:59.934Z,95.625
2023-05-05T11:29:01.776Z,101.25
2023-05-05T11:30:02.301Z,101.25
2023-05-05T11:31:03.704Z,101.25
2023-05-05T11:32:35.565Z,101.25
2023-05-05T11:33:36.985Z,101.25
2023-05-05T11:34:38.532Z,101.25
2023-05-05T11:35:39.931Z,106.875
2023-05-05T11:36:41.183Z,106.875
2023-05-05T11:37:42.223Z,101.25
2023-05-05T11:38:42.840Z,106.875
2023-05-05T11:39:43.972Z,106.875
2023-05-05T11:40:45.480Z,101.25
2023-05-05T11:41:46.945Z,95.625
2023-05-05T11:42:48.698Z,95.625
2023-05-05T11:43:49.956Z,95.625
2023-05-05T11:44:51.088Z,95.625
2023-05-05T11:45:52.533Z,106.875
2023-05-05T11:46:54.402Z,112.5
2023-05-05T11:47:55.488Z,112.5
2023-05-05T11:48:56.480Z,112.5
2023-05-05T11:49:57.945Z,112.5
2023-05-05T11:50:59.247Z,112.5
2023-05-05T11:52:00.737Z,123.75
2023-05-05T11:53:02.231Z,123.75
2023-05-05T11:54:03.814Z,129.375
2023-05-05T11:55:35.677Z,135
2023-05-05T11:56:36.926Z,135
2023-05-05T11:57:37.372Z,140.625
2023-05-05T11:58:38.708Z,140.625
2023-05-05T11:59:39.752Z,123.75
2023-05-05T12:00:41.204Z,129.375
2023-05-05T12:01:42.485Z,129.375
2023-05-05T12:02:44.014Z,123.75
2023-05-05T12:03:45.231Z,123.75
2023-05-05T12:04:46.440Z,112.5
2023-05-05T12:05:47.657Z,123.75
2023-05-05T12:06:48.978Z,129.375
2023-05-05T12:07:50.410Z,129.375
2023-05-05T12:08:51.531Z,140.625
2023-05-05T12:09:51.885Z,146.25
2023-05-05T12:10:52.993Z,140.625
2023-05-05T12:11:54.486Z,129.375
2023-05-05T12:12:56.115Z,135
2023-05-05T12:13:58.212Z,140.625
2023-05-05T12:14:59.246Z,140.625
2023-05-05T12:15:59.814Z,140.625
2023-05-05T12:17:01.727Z,129.375
2023-05-05T12:18:03.542Z,129.375
2023-05-05T12:19:34.939Z,140.625
2023-05-05T12:20:36.608Z,129.375
2023-05-05T12:21:37.975Z,123.75
2023-05-05T12:22:39.514Z,123.75
2023-05-05T12:23:40.932Z,123.75
2023-05-05T12:24:42.044Z,123.75
2023-05-05T12:25:44.035Z,118.125
2023-05-05T12:26:45.201Z,129.375
2023-05-05T12:27:46.765Z,129.375
2023-05-05T12:28:48.202Z,129.375
2023-05-05T12:29:49.247Z,129.375
2023-05-05T12:30:51.654Z,123.75
2023-05-05T12:31:52.250Z,123.75
2023-05-05T12:32:53.579Z,123.75
2023-05-05T12:33:55.054Z,123.75
2023-05-05T12:34:56.954Z,123.75
2023-05-05T12:35:59.262Z,118.125
2023-05-05T12:37:00.769Z,118.125
2023-05-05T12:38:02.303Z,118.125
2023-05-05T12:39:03.702Z,123.75
2023-05-05T12:40:35.537Z,123.75
2023-05-05T12:41:37.381Z,123.75
2023-05-05T12:42:39.160Z,123.75
2023-05-05T12:43:40.574Z,129.375
2023-05-05T12:44:41.751Z,129.375
2023-05-05T12:45:43.210Z,135
2023-05-05T12:46:44.816Z,135
2023-05-05T12:47:46.109Z,135
2023-05-05T12:48:48.595Z,140.625
2023-05-05T12:49:48.725Z,140.625
2023-05-05T12:50:50.132Z,140.625
2023-05-05T12:51:51.741Z,140.625
2023-05-05T12:52:53.028Z,146.25
2023-05-05T12:53:54.431Z,146.25
2023-05-05T12:54:55.569Z,146.25
2023-05-05T12:55:57.774Z,146.25
2023-05-05T12:56:59.318Z,146.25
2023-05-05T12:57:59.800Z,146.25
2023-05-05T12:59:01.720Z,146.25
2023-05-05T13:00:02.732Z,151.875
2023-05-05T13:01:34.706Z,151.875
2023-05-05T13:02:36.147Z,151.875
2023-05-05T13:03:37.727Z,157.5
2023-05-05T13:04:39.019Z,163.125
2023-05-05T13:05:40.446Z,168.75
2023-05-05T13:06:41.569Z,174.375
2023-05-05T13:07:42.787Z,180
2023-05-05T13:08:43.954Z,185.625
2023-05-05T13:09:45.007Z,191.25
2023-05-05T13:10:46.529Z,202.5
2023-05-05T13:11:48.018Z,213.75
2023-05-05T13:12:49.653Z,230.625
2023-05-05T13:13:51.096Z,247.5
2023-05-05T13:14:52.442Z,253.125
2023-05-05T13:15:53.581Z,219.375
2023-05-05T13:16:55.298Z,191.25
2023-05-05T13:17:56.865Z,191.25
2023-05-05T13:18:57.273Z,196.875
2023-05-05T13:19:58.513Z,191.25
2023-05-05T13:21:00.723Z,185.625
2023-05-05T13:22:01.761Z,185.625
2023-05-05T13:23:02.280Z,185.625
2023-05-05T13:24:46.362Z,180
2023-05-05T13:25:34.766Z,174.375
2023-05-05T13:26:35.937Z,174.375
2023-05-05T13:27:37.012Z,163.125
2023-05-05T13:28:38.505Z,185.625
2023-05-05T13:29:39.945Z,157.5
2023-05-05T13:30:41.616Z,118.125
2023-05-05T13:31:43.220Z,101.25
2023-05-05T13:32:44.800Z,95.625
2023-05-05T13:33:46.281Z,101.25
2023-05-05T13:34:47.757Z,106.875
2023-05-05T13:35:48.949Z,90
2023-05-05T13:36:50.044Z,73.125
2023-05-05T13:37:51.552Z,61.875
2023-05-05T13:38:52.980Z,56.25
2023-05-05T13:39:53.920Z,50.625
2023-05-05T13:40:55.039Z,45
2023-05-05T13:41:56.440Z,39.375
2023-05-05T13:42:58.222Z,39.375
2023-05-05T13:43:58.959Z,33.75
2023-05-05T13:45:00.081Z,33.75
2023-05-05T13:46:16.197Z,28.125
2023-05-05T13:47:33.281Z,28.125
2023-05-05T13:48:34.507Z,28.125
2023-05-05T13:49:35.762Z,28.125
2023-05-05T13:50:36.721Z,28.125
2023-05-05T13:51:38.338Z,28.125
2023-05-05T13:52:39.738Z,22.5